Buckhannon, WV (26201)

4:40 PM EDT on August 31, 2015 (GMT -0400)
bailey ridge | | Change Station
CLOSE
Current Station
Personal Weather Station
Location: Buckhannon, WV
Elevation: 1739 ft
Nearby Weather Stations

Elev 1739 ft 38.96 °N, 80.19 °W | Updated 13 seconds ago

Partly Cloudy
Partly Cloudy
84.6 °F
Feels Like 86 °F
N
2.2
Wind Variable Wind from WSW
Gusts 6.0 mph

Today
High -- | Low -- °F
--% Chance of Precip.
Yesterday
High -- | Low -- °F
Precip. -- in
6:48 AM 7:53 PM
Waning Gibbous, 94% visible
Pressure 30.11 in
Visibility 10.0 miles
Clouds Few 4400 ft
Few 5000 ft
Heat Index 86 °F
Dew Point 64 °F
Humidity 50%
Rainfall 0.00 in
Snow Depth Not available.
UV 0.0 out of 12
Pollen 9.40 out of 12
Air Quality Not available.
Flu Activity Not available.
METAR KW22 312015Z AUTO 19007KT 10SM FEW044 FEW050 30/18 A3011 RMK AO2
Pressure 30.11 in
Visibility 10.0 miles
Clouds Few 4400 ft
Few 5000 ft
Heat Index 86 °F
Dew Point 64 °F
Humidity 50%
Rainfall 0.00 in
Snow Depth Not available.
UV 0.0 out of 12
Pollen 9.40 out of 12
Air Quality Not available.
Flu Activity Not available.
METAR KW22 312015Z AUTO 19007KT 10SM FEW044 FEW050 30/18 A3011 RMK AO2

10-Day Weather Forecast

×

Almanac

Astronomy

Aug. 31, 2015 Rise Set
Actual Time
Civil Twilight
Nautical Twilight
Astronomical Twilight
Moon
Length of Visible Light
Length of Day
Tomorrow will be .
, % of the Moon is Illuminated

Today's Extremes

State Highs State Lows

Community

WunderPhotos

Upload Photos

1,851,356 photos uploaded!

WunderBlogs® & News

Nearby

Air Quality

  Air Quality AQ Index Pollutant
Not available.

Snow Depth

Station Depth Elevation

Earthquake Activity

City Distance Mag. Time & Date
Minimum magnitude displayed is 2.5.

Coastal Water Temperatures

Place Temperature

Stations

Nearby Weather Stations

Station Location Temp. Windchill Dew Point Humidity Wind Precip. Elev Updated Type